createdAt,value
2019-03-09T00:01:24.969Z,31.00
2019-03-09T00:03:50.910Z,25.23
2019-03-09T00:06:17.086Z,25.93
2019-03-09T00:08:43.136Z,22.27
2019-03-09T00:11:09.169Z,23.53
2019-03-09T00:13:35.184Z,23.90
2019-03-09T00:16:01.115Z,24.93
2019-03-09T00:18:27.809Z,24.33
2019-03-09T00:20:53.731Z,26.23
2019-03-09T00:23:38.609Z,25.00
2019-03-09T00:26:09.085Z,26.67
2019-03-09T00:28:42.882Z,25.63
2019-03-09T00:31:13.636Z,24.40
2019-03-09T00:33:39.486Z,23.93
2019-03-09T00:36:05.540Z,25.17
2019-03-09T00:38:31.371Z,25.43
2019-03-09T00:40:57.257Z,25.60
2019-03-09T00:43:23.097Z,25.77
2019-03-09T00:45:49.138Z,30.63
2019-03-09T00:48:15.258Z,34.97
2019-03-09T00:50:41.196Z,24.73
2019-03-09T00:53:09.927Z,31.00
2019-03-09T00:55:36.040Z,25.23
2019-03-09T00:58:02.112Z,28.33
2019-03-09T01:00:28.168Z,25.40
2019-03-09T01:02:54.147Z,26.17
2019-03-09T01:05:20.302Z,26.30
2019-03-09T01:07:46.408Z,27.50
2019-03-09T01:10:14.027Z,25.20
2019-03-09T01:12:40.116Z,28.33
2019-03-09T01:15:07.175Z,29.30
2019-03-09T01:17:33.089Z,27.97
2019-03-09T01:19:59.092Z,30.67
2019-03-09T01:22:25.226Z,30.30
2019-03-09T01:24:51.440Z,29.37
2019-03-09T01:27:17.459Z,31.20
2019-03-09T01:29:43.414Z,27.17
2019-03-09T01:32:09.448Z,30.83
2019-03-09T01:34:35.513Z,29.07
2019-03-09T01:37:01.678Z,26.03
2019-03-09T01:39:27.596Z,31.23
2019-03-09T01:41:53.609Z,28.57
2019-03-09T01:44:19.449Z,27.73
2019-03-09T01:46:45.391Z,31.23
2019-03-09T01:49:11.696Z,31.90
2019-03-09T01:51:37.544Z,26.43
2019-03-09T01:54:07.464Z,31.90
2019-03-09T01:56:33.550Z,30.70
2019-03-09T01:58:59.384Z,28.80
2019-03-09T02:01:25.309Z,28.63
2019-03-09T02:03:51.421Z,32.20
2019-03-09T02:06:17.377Z,30.83
2019-03-09T02:08:43.368Z,30.33
2019-03-09T02:11:09.483Z,29.80
2019-03-09T02:13:35.453Z,31.67
2019-03-09T02:16:01.492Z,32.87
2019-03-09T02:18:27.679Z,30.60
2019-03-09T02:20:53.627Z,31.90
2019-03-09T02:23:19.574Z,33.10
2019-03-09T02:25:45.529Z,31.53
2019-03-09T02:28:11.569Z,30.10
2019-03-09T02:30:37.487Z,28.77
2019-03-09T02:33:03.436Z,31.33
2019-03-09T02:35:29.268Z,33.17
2019-03-09T02:37:57.082Z,35.27
2019-03-09T02:40:24.920Z,32.03
2019-03-09T02:42:50.864Z,32.80
2019-03-09T02:45:19.173Z,33.07
2019-03-09T02:47:45.102Z,26.83
2019-03-09T02:50:13.157Z,29.70
2019-03-09T02:52:39.347Z,34.47
2019-03-09T02:55:07.312Z,31.00
2019-03-09T02:57:33.291Z,27.50
2019-03-09T03:00:00.959Z,32.50
2019-03-09T03:02:34.933Z,29.33
2019-03-09T03:05:00.876Z,32.47
2019-03-09T03:07:26.889Z,32.40
2019-03-09T03:09:52.720Z,33.13
2019-03-09T03:12:18.650Z,30.43
2019-03-09T03:14:44.593Z,32.57
2019-03-09T03:17:10.432Z,29.53
2019-03-09T03:19:36.272Z,31.17
2019-03-09T03:22:02.323Z,28.70
2019-03-09T03:24:28.385Z,31.60
2019-03-09T03:26:54.336Z,32.70
2019-03-09T03:29:20.986Z,29.47
2019-03-09T03:31:46.915Z,33.57
2019-03-09T03:34:12.756Z,33.23
2019-03-09T03:36:38.757Z,33.60
2019-03-09T03:39:05.495Z,34.47
2019-03-09T03:41:31.741Z,32.47
2019-03-09T03:43:57.815Z,34.70
2019-03-09T03:46:23.763Z,31.63
2019-03-09T03:48:49.803Z,33.43
2019-03-09T03:51:15.781Z,35.90
2019-03-09T03:53:42.001Z,31.77
2019-03-09T03:56:08.058Z,31.60
2019-03-09T03:58:34.222Z,33.70
2019-03-09T04:01:00.279Z,32.53
2019-03-09T04:03:26.116Z,36.20
2019-03-09T04:05:52.237Z,33.77
2019-03-09T04:08:18.381Z,33.33
2019-03-09T04:10:44.503Z,35.77
2019-03-09T04:13:10.864Z,32.37
2019-03-09T04:15:36.904Z,40.83
2019-03-09T04:18:02.889Z,37.43
2019-03-09T04:20:28.837Z,36.60
2019-03-09T04:22:54.680Z,41.23
2019-03-09T04:25:20.814Z,35.63
2019-03-09T04:27:46.737Z,35.83
2019-03-09T04:30:12.777Z,36.07
2019-03-09T04:32:38.758Z,36.63
2019-03-09T04:35:05.810Z,33.60
2019-03-09T04:37:31.774Z,37.50
2019-03-09T04:39:57.774Z,33.83
2019-03-09T04:42:23.840Z,35.43
2019-03-09T04:44:49.985Z,35.17
2019-03-09T04:47:15.872Z,35.47
2019-03-09T04:49:41.701Z,36.50
2019-03-09T04:52:07.753Z,37.33
2019-03-09T04:54:33.613Z,37.27
2019-03-09T04:56:59.454Z,39.93
2019-03-09T04:59:25.529Z,38.73
2019-03-09T05:01:51.344Z,40.70
2019-03-09T05:04:27.371Z,36.37
2019-03-09T05:06:53.341Z,36.67
2019-03-09T05:09:44.294Z,40.83
2019-03-09T05:12:10.149Z,38.27
2019-03-09T05:14:36.118Z,35.47
2019-03-09T05:17:02.053Z,39.93
2019-03-09T05:19:27.908Z,37.50
2019-03-09T05:21:53.819Z,44.97
2019-03-09T05:24:19.652Z,38.67
2019-03-09T05:26:45.573Z,43.67
2019-03-09T05:29:11.497Z,42.33
2019-03-09T05:31:37.327Z,40.37
2019-03-09T05:34:03.273Z,40.03
2019-03-09T05:36:29.261Z,36.10
2019-03-09T05:38:55.139Z,44.60
2019-03-09T05:41:21.113Z,38.83
2019-03-09T05:43:46.971Z,35.93
2019-03-09T05:46:12.813Z,39.93
2019-03-09T05:48:38.697Z,39.80
2019-03-09T05:51:04.545Z,39.57
2019-03-09T05:53:30.416Z,39.43
2019-03-09T05:55:59.633Z,42.70
2019-03-09T05:58:25.733Z,39.60
2019-03-09T06:00:51.884Z,37.27
2019-03-09T06:03:17.811Z,39.77
2019-03-09T06:05:45.781Z,37.87
2019-03-09T06:08:11.663Z,44.37
2019-03-09T06:10:37.624Z,37.90
2019-03-09T06:13:03.858Z,36.93
2019-03-09T06:15:29.990Z,38.80
2019-03-09T06:17:55.786Z,39.70
2019-03-09T06:20:21.832Z,43.10
2019-03-09T06:22:47.816Z,41.17
2019-03-09T06:25:13.734Z,40.60
2019-03-09T06:27:39.667Z,46.97
2019-03-09T06:30:07.632Z,40.57
2019-03-09T06:32:37.305Z,37.87
2019-03-09T06:35:06.894Z,39.73
2019-03-09T06:37:32.735Z,41.97
2019-03-09T06:39:58.670Z,40.70
2019-03-09T06:42:28.290Z,39.40
2019-03-09T06:44:54.259Z,41.73
2019-03-09T06:47:20.093Z,38.30
2019-03-09T06:49:45.989Z,39.87
2019-03-09T06:52:12.034Z,39.20
2019-03-09T06:54:37.988Z,42.73
2019-03-09T06:57:13.249Z,38.80
2019-03-09T06:59:31.840Z,37.80
2019-03-09T07:01:57.826Z,43.93
2019-03-09T07:04:23.685Z,36.17
2019-03-09T07:06:49.509Z,36.03
2019-03-09T07:09:15.413Z,37.60
2019-03-09T07:11:41.258Z,36.57
2019-03-09T07:14:44.546Z,37.57
2019-03-09T07:17:10.393Z,37.80
2019-03-09T07:19:36.262Z,34.50
2019-03-09T07:22:02.255Z,36.10
2019-03-09T07:24:28.070Z,33.03
2019-03-09T07:26:53.906Z,36.70
2019-03-09T07:29:19.787Z,36.00
2019-03-09T07:31:45.649Z,33.07
2019-03-09T07:34:25.845Z,34.60
2019-03-09T07:36:51.686Z,35.13
2019-03-09T07:39:17.636Z,37.00
2019-03-09T07:41:43.546Z,34.70
2019-03-09T07:44:09.478Z,32.73
2019-03-09T07:46:35.398Z,30.37
2019-03-09T07:49:01.364Z,36.50
2019-03-09T07:51:27.197Z,33.70
2019-03-09T07:53:53.179Z,31.77
2019-03-09T07:56:19.274Z,33.27
2019-03-09T07:58:45.319Z,37.80
2019-03-09T08:01:11.182Z,33.10
2019-03-09T08:03:37.130Z,39.43
2019-03-09T08:06:03.068Z,35.83
2019-03-09T08:08:28.922Z,35.67
2019-03-09T08:10:54.789Z,36.97
2019-03-09T08:13:20.783Z,36.60
2019-03-09T08:15:46.757Z,35.10
2019-03-09T08:18:12.630Z,43.30
2019-03-09T08:20:38.498Z,39.90
2019-03-09T08:23:04.419Z,36.70
2019-03-09T08:25:30.495Z,37.60
2019-03-09T08:27:56.434Z,37.43
2019-03-09T08:30:24.204Z,37.03
2019-03-09T08:32:50.509Z,47.07
2019-03-09T08:35:17.540Z,32.97
2019-03-09T08:37:43.751Z,34.17
2019-03-09T08:40:12.231Z,34.63
2019-03-09T08:42:38.213Z,41.00
2019-03-09T08:45:06.988Z,32.13
2019-03-09T08:47:32.952Z,32.90
2019-03-09T08:49:58.884Z,37.80
2019-03-09T08:52:24.788Z,32.03
2019-03-09T08:54:50.669Z,34.47
2019-03-09T08:57:16.475Z,34.33
2019-03-09T08:59:42.349Z,33.97
2019-03-09T09:02:08.523Z,34.53
2019-03-09T09:04:34.788Z,35.07
2019-03-09T09:07:00.878Z,33.90
2019-03-09T09:09:26.955Z,30.70
2019-03-09T09:11:53.006Z,32.67
2019-03-09T09:14:18.869Z,32.80
2019-03-09T09:16:44.747Z,33.07
2019-03-09T09:19:10.600Z,27.93
2019-03-09T09:21:36.449Z,21.33
2019-03-09T09:24:02.716Z,22.97
2019-03-09T09:26:28.575Z,18.47
2019-03-09T09:28:54.396Z,18.07
2019-03-09T09:31:20.294Z,16.03
2019-03-09T09:33:46.119Z,19.57
2019-03-09T09:36:12.119Z,13.67
2019-03-09T09:38:38.037Z,11.33
2019-03-09T09:41:04.073Z,14.13
2019-03-09T09:43:29.915Z,17.77
2019-03-09T09:45:56.022Z,12.77
2019-03-09T09:48:21.838Z,17.73
2019-03-09T09:50:47.991Z,24.50
2019-03-09T09:53:13.982Z,15.50
2019-03-09T09:55:39.925Z,17.10
2019-03-09T09:58:06.033Z,15.43
2019-03-09T10:00:35.760Z,24.73
2019-03-09T10:03:01.591Z,19.00
2019-03-09T10:05:27.602Z,22.37
2019-03-09T10:07:53.473Z,17.10
2019-03-09T10:10:20.508Z,20.47
2019-03-09T10:12:46.695Z,21.23
2019-03-09T10:15:26.961Z,19.83
2019-03-09T10:17:53.095Z,18.80
2019-03-09T10:20:19.235Z,15.43
2019-03-09T10:22:45.052Z,22.10
2019-03-09T10:25:11.164Z,20.00
2019-03-09T10:27:37.102Z,16.97
2019-03-09T10:30:09.761Z,18.83
2019-03-09T10:32:35.773Z,23.40
2019-03-09T10:35:01.833Z,19.20
2019-03-09T10:37:27.770Z,18.77
2019-03-09T10:39:53.757Z,20.40
2019-03-09T10:42:19.573Z,16.67
2019-03-09T10:44:45.610Z,19.43
2019-03-09T10:47:11.597Z,17.13
2019-03-09T10:49:37.535Z,21.73
2019-03-09T10:52:03.369Z,17.80
2019-03-09T10:54:35.946Z,18.30
2019-03-09T10:56:57.128Z,20.10
2019-03-09T10:59:23.085Z,21.67
2019-03-09T11:01:49.099Z,25.33
2019-03-09T11:04:15.197Z,20.90
2019-03-09T11:06:41.182Z,22.10
2019-03-09T11:09:07.037Z,23.27
2019-03-09T11:11:32.876Z,23.63
2019-03-09T11:13:58.776Z,30.17
2019-03-09T11:16:24.629Z,19.30
2019-03-09T11:18:50.467Z,21.33
2019-03-09T11:21:16.690Z,26.60
2019-03-09T11:23:42.593Z,29.10
2019-03-09T11:26:08.559Z,22.37
2019-03-09T11:28:34.942Z,27.10
2019-03-09T11:31:00.785Z,25.30
2019-03-09T11:33:26.693Z,27.70
2019-03-09T11:35:52.649Z,22.87
2019-03-09T11:38:18.722Z,21.97
2019-03-09T11:40:44.641Z,18.77
2019-03-09T11:43:10.600Z,26.30
2019-03-09T11:45:36.774Z,24.33
2019-03-09T11:48:02.894Z,23.77
2019-03-09T11:50:28.720Z,21.20
2019-03-09T11:52:54.774Z,21.40
2019-03-09T11:55:20.802Z,20.80
2019-03-09T11:57:46.824Z,22.60
2019-03-09T12:00:22.383Z,21.97
2019-03-09T12:02:48.530Z,23.30
2019-03-09T12:05:14.369Z,23.87
2019-03-09T12:07:40.199Z,21.13
2019-03-09T12:10:10.467Z,19.63
2019-03-09T12:12:36.523Z,17.83
2019-03-09T12:15:04.960Z,20.80
2019-03-09T12:17:30.927Z,17.63
2019-03-09T12:19:56.879Z,19.57
2019-03-09T12:22:22.705Z,20.57
2019-03-09T12:24:50.752Z,20.27
2019-03-09T12:27:16.603Z,22.87
2019-03-09T12:29:42.477Z,19.60
2019-03-09T12:32:08.301Z,20.23
2019-03-09T12:34:34.238Z,20.57
2019-03-09T12:37:00.155Z,19.40
2019-03-09T12:39:26.074Z,23.10
2019-03-09T12:41:52.567Z,19.37
2019-03-09T12:44:18.720Z,20.37
2019-03-09T12:46:44.653Z,22.42
2019-03-09T12:49:10.626Z,18.62
2019-03-09T12:51:36.735Z,18.77
2019-03-09T12:54:02.673Z,18.80
2019-03-09T12:56:28.528Z,20.43
2019-03-09T12:58:54.449Z,22.75
2019-03-09T13:01:22.046Z,20.27
2019-03-09T13:03:48.114Z,19.07
2019-03-09T13:06:14.293Z,23.22
2019-03-09T13:08:40.204Z,20.05
2019-03-09T13:11:06.236Z,19.00
2019-03-09T13:13:32.931Z,26.57
2019-03-09T13:15:58.930Z,19.80
2019-03-09T13:18:24.791Z,21.52
2019-03-09T13:20:50.626Z,20.20
2019-03-09T13:23:16.596Z,23.52
2019-03-09T13:25:42.561Z,27.75
2019-03-09T13:28:08.632Z,23.98
2019-03-09T13:30:34.560Z,20.02
2019-03-09T13:33:00.771Z,21.90
2019-03-09T13:35:26.682Z,20.92
2019-03-09T13:37:52.645Z,21.00
2019-03-09T13:40:18.813Z,22.75
2019-03-09T13:42:44.873Z,24.60
2019-03-09T13:45:12.822Z,23.50
2019-03-09T13:47:38.933Z,28.98
2019-03-09T13:50:07.897Z,22.80
2019-03-09T13:52:33.723Z,22.93
2019-03-09T13:54:59.737Z,27.52
2019-03-09T13:57:25.557Z,25.17
2019-03-09T13:59:51.450Z,25.13
2019-03-09T14:02:17.272Z,24.37
2019-03-09T14:04:43.354Z,22.07
2019-03-09T14:07:09.309Z,24.77
2019-03-09T14:09:35.154Z,29.47
2019-03-09T14:12:00.999Z,29.63
2019-03-09T14:14:26.986Z,25.40
2019-03-09T14:16:52.961Z,25.17
2019-03-09T14:19:18.946Z,25.33
2019-03-09T14:21:44.798Z,25.17
2019-03-09T14:24:10.650Z,24.80
2019-03-09T14:26:36.469Z,21.53
2019-03-09T14:29:02.506Z,23.27
2019-03-09T14:31:28.581Z,19.30
2019-03-09T14:33:54.429Z,21.23
2019-03-09T14:36:20.339Z,20.17
2019-03-09T14:38:46.228Z,20.37
2019-03-09T14:41:12.068Z,19.70
2019-03-09T14:43:37.904Z,21.10
2019-03-09T14:46:03.973Z,28.17
2019-03-09T14:48:29.821Z,25.30
2019-03-09T14:50:55.653Z,22.10
2019-03-09T14:53:21.630Z,24.30
2019-03-09T14:55:47.496Z,23.80
2019-03-09T14:58:13.339Z,22.63
2019-03-09T15:00:39.376Z,20.90
2019-03-09T15:03:05.234Z,22.47
2019-03-09T15:05:31.049Z,23.98
2019-03-09T15:07:57.356Z,27.17
2019-03-09T15:10:23.294Z,23.63
2019-03-09T15:12:49.335Z,23.33
2019-03-09T15:15:16.513Z,27.90
2019-03-09T15:17:42.342Z,25.03
2019-03-09T15:20:10.307Z,24.57
2019-03-09T15:22:36.219Z,28.83
2019-03-09T15:25:03.483Z,23.53
2019-03-09T15:27:29.427Z,23.30
2019-03-09T15:29:55.326Z,23.90
2019-03-09T15:32:21.159Z,22.50
2019-03-09T15:34:47.233Z,23.27
2019-03-09T15:37:13.242Z,23.20
2019-03-09T15:39:39.192Z,23.87
2019-03-09T15:42:05.168Z,23.80
2019-03-09T15:44:31.055Z,26.03
2019-03-09T15:46:57.100Z,22.37
2019-03-09T15:49:23.061Z,26.47
2019-03-09T15:51:49.841Z,28.37
2019-03-09T15:54:16.015Z,23.37
2019-03-09T15:56:42.055Z,24.50
2019-03-09T15:59:07.901Z,23.70
2019-03-09T16:01:33.828Z,26.83
2019-03-09T16:03:59.679Z,21.57
2019-03-09T16:06:25.626Z,25.60
2019-03-09T16:08:51.578Z,23.63
2019-03-09T16:11:17.520Z,26.57
2019-03-09T16:13:43.421Z,26.57
2019-03-09T16:16:09.260Z,25.00
2019-03-09T16:18:35.109Z,27.67
2019-03-09T16:21:05.147Z,27.57
2019-03-09T16:23:30.997Z,23.33
2019-03-09T16:25:56.836Z,25.23
2019-03-09T16:28:22.801Z,20.77
2019-03-09T16:30:48.659Z,23.87
2019-03-09T16:33:14.720Z,22.87
2019-03-09T16:35:40.846Z,26.23
2019-03-09T16:38:06.810Z,27.37
2019-03-09T16:40:40.006Z,24.30
2019-03-09T16:43:00.595Z,21.90
2019-03-09T16:45:26.548Z,21.90
2019-03-09T16:47:52.596Z,24.53
2019-03-09T16:50:18.633Z,20.60
2019-03-09T16:52:44.827Z,25.60
2019-03-09T16:55:11.049Z,22.23
2019-03-09T16:57:37.020Z,24.27
2019-03-09T17:00:17.846Z,19.07
2019-03-09T17:02:43.988Z,23.07
2019-03-09T17:05:10.078Z,21.53
2019-03-09T17:07:36.045Z,25.93
2019-03-09T17:10:02.098Z,23.43
2019-03-09T17:12:28.088Z,24.07
2019-03-09T17:14:54.104Z,23.40
2019-03-09T17:17:19.989Z,22.27
2019-03-09T17:19:46.071Z,23.17
2019-03-09T17:22:11.951Z,29.70
2019-03-09T17:24:37.892Z,23.27
2019-03-09T17:27:04.035Z,28.50
2019-03-09T17:29:29.860Z,22.53
2019-03-09T17:31:55.693Z,22.53
2019-03-09T17:34:21.619Z,22.27
2019-03-09T17:36:47.457Z,25.53
2019-03-09T17:39:13.284Z,23.33
2019-03-09T17:41:39.231Z,21.63
2019-03-09T17:44:05.087Z,27.17
2019-03-09T17:46:31.016Z,26.17
2019-03-09T17:48:57.017Z,24.93
2019-03-09T17:51:22.962Z,20.03
2019-03-09T17:53:48.808Z,26.27
2019-03-09T17:56:14.697Z,22.17
2019-03-09T17:58:40.641Z,27.50
2019-03-09T18:01:06.678Z,27.33
2019-03-09T18:03:32.602Z,27.50
2019-03-09T18:05:58.533Z,23.57
2019-03-09T18:08:24.380Z,27.70
2019-03-09T18:10:53.779Z,28.60
2019-03-09T18:13:20.198Z,24.67
2019-03-09T18:15:46.155Z,27.87
2019-03-09T18:18:12.132Z,21.73
2019-03-09T18:20:37.980Z,22.33
2019-03-09T18:23:04.105Z,24.47
2019-03-09T18:25:30.034Z,27.13
2019-03-09T18:27:55.889Z,26.60
2019-03-09T18:30:21.877Z,24.37
2019-03-09T18:32:47.811Z,25.77
2019-03-09T18:35:13.868Z,25.13
2019-03-09T18:37:39.944Z,27.47
2019-03-09T18:40:14.271Z,24.80
2019-03-09T18:42:40.219Z,23.00
2019-03-09T18:45:12.109Z,30.43
2019-03-09T18:47:37.944Z,23.87
2019-03-09T18:50:05.291Z,22.53
2019-03-09T18:52:31.253Z,27.33
2019-03-09T18:54:57.089Z,23.47
2019-03-09T18:57:23.256Z,29.53
2019-03-09T18:59:49.088Z,25.53
2019-03-09T19:02:16.218Z,26.43
2019-03-09T19:04:42.123Z,29.33
2019-03-09T19:07:07.951Z,29.70
2019-03-09T19:09:33.794Z,28.90
2019-03-09T19:11:59.925Z,28.00
2019-03-09T19:14:25.863Z,28.67
2019-03-09T19:16:51.675Z,34.83
2019-03-09T19:19:17.554Z,32.20
2019-03-09T19:21:43.387Z,28.77
2019-03-09T19:24:09.622Z,30.80
2019-03-09T19:26:38.809Z,30.53
2019-03-09T19:29:05.315Z,33.53
2019-03-09T19:31:31.801Z,33.83
2019-03-09T19:33:57.807Z,33.07
2019-03-09T19:36:23.639Z,34.77
2019-03-09T19:38:49.519Z,44.80
2019-03-09T19:41:15.356Z,26.53
2019-03-09T19:43:41.252Z,35.93
2019-03-09T19:46:07.114Z,35.77
2019-03-09T19:48:33.937Z,39.43
2019-03-09T19:50:59.997Z,37.90
2019-03-09T19:53:25.949Z,36.20
2019-03-09T19:55:51.962Z,37.70
2019-03-09T19:58:18.079Z,37.33
2019-03-09T20:00:43.933Z,37.13
2019-03-09T20:03:09.766Z,41.27
2019-03-09T20:05:37.787Z,40.27
2019-03-09T20:08:03.844Z,32.90
2019-03-09T20:10:29.853Z,35.10
2019-03-09T20:12:55.848Z,55.93
2019-03-09T20:15:22.124Z,29.00
2019-03-09T20:17:48.707Z,31.67
2019-03-09T20:20:16.328Z,33.77
2019-03-09T20:22:42.390Z,33.23
2019-03-09T20:25:09.174Z,32.67
2019-03-09T20:27:35.450Z,31.73
2019-03-09T20:30:02.541Z,26.60
2019-03-09T20:32:30.950Z,28.53
2019-03-09T20:34:57.668Z,28.67
2019-03-09T20:37:24.742Z,34.47
2019-03-09T20:39:53.388Z,30.30
2019-03-09T20:42:22.113Z,31.73
2019-03-09T20:44:49.408Z,29.50
2019-03-09T20:47:16.885Z,30.70
2019-03-09T20:49:45.682Z,27.63
2019-03-09T20:52:15.355Z,32.50
2019-03-09T20:54:42.345Z,32.33
2019-03-09T20:57:09.455Z,29.67
2019-03-09T20:59:36.533Z,34.00
2019-03-09T21:02:03.833Z,31.17
2019-03-09T21:04:30.909Z,32.30
2019-03-09T21:06:59.558Z,31.23
2019-03-09T21:09:26.720Z,32.27
2019-03-09T21:11:53.580Z,28.60
2019-03-09T21:14:20.452Z,28.97
2019-03-09T21:16:47.457Z,26.07
2019-03-09T21:19:14.251Z,28.83
2019-03-09T21:21:40.780Z,27.33
2019-03-09T21:24:07.070Z,30.23
2019-03-09T21:26:33.062Z,33.43
2019-03-09T21:28:59.163Z,33.73
2019-03-09T21:31:25.167Z,35.37
2019-03-09T21:33:51.126Z,31.53
2019-03-09T21:36:16.979Z,30.77
2019-03-09T21:38:42.943Z,28.93
2019-03-09T21:41:08.917Z,27.67
2019-03-09T21:43:34.815Z,30.73
2019-03-09T21:46:01.200Z,28.53
2019-03-09T21:48:27.032Z,28.80
2019-03-09T21:50:53.014Z,33.10
2019-03-09T21:53:19.013Z,27.27
2019-03-09T21:55:44.864Z,26.57
2019-03-09T21:58:10.934Z,22.80
2019-03-09T22:00:37.864Z,32.87
2019-03-09T22:03:03.712Z,26.20
2019-03-09T22:05:29.593Z,24.73
2019-03-09T22:07:56.577Z,25.70
2019-03-09T22:10:22.598Z,23.53
2019-03-09T22:12:48.506Z,25.00
2019-03-09T22:15:15.382Z,26.20
2019-03-09T22:17:41.654Z,25.27
2019-03-09T22:20:11.291Z,29.50
2019-03-09T22:22:37.485Z,23.50
2019-03-09T22:25:06.731Z,23.13
2019-03-09T22:27:32.570Z,25.63
2019-03-09T22:29:58.457Z,21.73
2019-03-09T22:32:24.310Z,21.60
2019-03-09T22:34:50.294Z,20.10
2019-03-09T22:37:16.241Z,20.07
2019-03-09T22:39:42.216Z,23.43
2019-03-09T22:42:08.173Z,22.97
2019-03-09T22:44:33.991Z,19.10
2019-03-09T22:47:10.826Z,20.10
2019-03-09T22:49:27.955Z,17.67
2019-03-09T22:51:53.801Z,17.27
2019-03-09T22:54:19.730Z,17.53
2019-03-09T22:56:45.624Z,14.33
2019-03-09T22:59:11.501Z,19.57
2019-03-09T23:01:41.039Z,15.27
2019-03-09T23:04:06.997Z,19.90
2019-03-09T23:06:33.058Z,18.90
2019-03-09T23:08:59.133Z,19.50
2019-03-09T23:11:25.058Z,23.00
2019-03-09T23:13:51.055Z,20.93
2019-03-09T23:16:16.926Z,19.67
2019-03-09T23:18:42.784Z,19.73
2019-03-09T23:21:08.708Z,19.90
2019-03-09T23:23:36.518Z,22.13
2019-03-09T23:26:02.448Z,23.33
2019-03-09T23:28:43.255Z,24.83
2019-03-09T23:31:09.183Z,31.83
2019-03-09T23:33:35.050Z,35.97
2019-03-09T23:36:01.005Z,30.97
2019-03-09T23:38:26.871Z,34.43
2019-03-09T23:40:52.934Z,30.57
2019-03-09T23:43:18.776Z,31.10
2019-03-09T23:45:44.808Z,33.13
2019-03-09T23:48:10.936Z,32.33
2019-03-09T23:50:36.979Z,33.10
2019-03-09T23:53:03.026Z,32.83
2019-03-09T23:55:28.999Z,32.93
2019-03-09T23:57:55.053Z,37.10
